Time;durP1;ratioP1;P1;durP2;ratioP2;P2;SDS_P1;SDS_P2;PMS_P1;PMS_P2;Temp;Humidity;BMP_temperature;BMP_pressure;BME280_temperature;BME280_humidity;BME280_pressure;Samples;Min_cycle;Max_cycle;Signal;HPM_P1;HPM_P2
2023/06/25 00:00:05;;;;;;;17.42;15.70;;;;;;;;;;5068381;28;20237;-53
2023/06/25 00:02:33;;;;;;;18.38;15.98;;;;;;;;;;5050920;28;23004;-51
2023/06/25 00:04:59;;;;;;;18.55;16.63;;;;;;;;;;5063826;28;20251;-53
2023/06/25 00:07:26;;;;;;;17.55;15.65;;;;;;;;;;5063079;28;20315;-52
2023/06/25 00:09:53;;;;;;;17.88;15.82;;;;;;;;;;5051475;28;20223;-53
2023/06/25 00:12:19;;;;;;;17.77;15.95;;;;;;;;;;5057721;28;20799;-52
2023/06/25 00:14:46;;;;;;;17.45;15.68;;;;;;;;;;5075246;28;20267;-52
2023/06/25 00:17:17;;;;;;;19.15;17.17;;;;;;;;;;5075086;28;20542;-53
2023/06/25 00:19:44;;;;;;;17.80;16.05;;;;;;;;;;5068934;28;20239;-52
2023/06/25 00:22:11;;;;;;;18.73;16.67;;;;;;;;;;5064908;28;20258;-52
2023/06/25 00:24:38;;;;;;;20.13;17.85;;;;;;;;;;5064593;28;20235;-52
2023/06/25 00:27:04;;;;;;;20.77;18.27;;;;;;;;;;5051986;28;20314;-52
2023/06/25 00:29:31;;;;;;;19.42;17.40;;;;;;;;;;5053422;28;20226;-53
2023/06/25 00:31:57;;;;;;;20.30;18.08;;;;;;;;;;5065211;28;20239;-54
2023/06/25 00:34:24;;;;;;;20.90;18.13;;;;;;;;;;5053515;28;20250;-52
2023/06/25 00:36:52;;;;;;;19.80;16.67;;;;;;;;;;5064894;28;20912;-53
2023/06/25 00:39:19;;;;;;;20.13;16.83;;;;;;;;;;5060996;28;20235;-55
2023/06/25 00:41:45;;;;;;;18.63;16.75;;;;;;;;;;5051036;28;20323;-52
2023/06/25 00:44:11;;;;;;;18.55;15.95;;;;;;;;;;5061638;28;20310;-55
2023/06/25 00:46:38;;;;;;;17.80;16.10;;;;;;;;;;5071507;28;20255;-53
2023/06/25 00:49:06;;;;;;;17.27;15.57;;;;;;;;;;5061845;28;20939;-53
2023/06/25 00:51:34;;;;;;;18.23;16.27;;;;;;;;;;5059619;28;20310;-54
2023/06/25 00:54:05;;;;;;;18.33;16.02;;;;;;;;;;5070215;28;20306;-52
2023/06/25 00:56:31;;;;;;;15.90;14.30;;;;;;;;;;5068997;28;20310;-53
2023/06/25 00:59:00;;;;;;;13.77;12.45;;;;;;;;;;5065601;28;20239;-52
2023/06/25 01:01:28;;;;;;;13.45;12.15;;;;;;;;;;5064138;28;20232;-52
2023/06/25 01:04:00;;;;;;;12.40;11.23;;;;;;;;;;5070167;28;20240;-51
2023/06/25 01:06:29;;;;;;;13.60;12.15;;;;;;;;;;5061983;28;20314;-51
2023/06/25 01:08:59;;;;;;;13.35;11.98;;;;;;;;;;5063921;28;20235;-52
2023/06/25 01:11:27;;;;;;;13.82;12.52;;;;;;;;;;5065298;28;20493;-52
2023/06/25 01:13:53;;;;;;;13.60;12.30;;;;;;;;;;5065035;28;20318;-52
2023/06/25 01:16:20;;;;;;;13.40;12.18;;;;;;;;;;5067865;28;20754;-54
2023/06/25 01:18:48;;;;;;;14.43;13.02;;;;;;;;;;5068235;28;20289;-52
2023/06/25 01:21:16;;;;;;;14.35;12.85;;;;;;;;;;5065808;28;20287;-56
2023/06/25 01:23:44;;;;;;;14.50;13.13;;;;;;;;;;5078252;28;20671;-52
2023/06/25 01:26:10;;;;;;;16.70;15.10;;;;;;;;;;5077232;28;20258;-53
2023/06/25 01:28:37;;;;;;;14.63;13.23;;;;;;;;;;5065664;28;20232;-51
2023/06/25 01:31:03;;;;;;;15.13;13.57;;;;;;;;;;5058752;28;20326;-54
2023/06/25 01:33:30;;;;;;;17.00;15.23;;;;;;;;;;5066712;28;20720;-52
2023/06/25 01:35:56;;;;;;;15.23;13.73;;;;;;;;;;5071734;28;20231;-51
2023/06/25 01:38:22;;;;;;;16.08;14.57;;;;;;;;;;5066753;28;20230;-51
2023/06/25 01:40:50;;;;;;;17.23;13.27;;;;;;;;;;5075408;28;20229;-51
2023/06/25 01:43:17;;;;;;;15.38;13.18;;;;;;;;;;5075045;28;20237;-52
2023/06/25 01:45:43;;;;;;;13.98;12.45;;;;;;;;;;5069931;28;20598;-52
2023/06/25 01:48:11;;;;;;;13.32;12.02;;;;;;;;;;5068705;28;20237;-53
2023/06/25 01:50:37;;;;;;;12.13;10.32;;;;;;;;;;5057975;28;20231;-52
2023/06/25 01:53:03;;;;;;;10.75;9.65;;;;;;;;;;5065676;28;20411;-52
2023/06/25 01:55:30;;;;;;;11.77;10.15;;;;;;;;;;5059892;28;20227;-53
2023/06/25 01:57:57;;;;;;;10.48;9.48;;;;;;;;;;5060259;28;20728;-54
2023/06/25 02:00:24;;;;;;;9.80;8.90;;;;;;;;;;5052800;28;20224;-52
2023/06/25 02:02:51;;;;;;;8.95;8.15;;;;;;;;;;5051800;28;20279;-52
2023/06/25 02:05:17;;;;;;;8.10;7.40;;;;;;;;;;5067501;28;20314;-53
2023/06/25 02:07:44;;;;;;;11.95;8.48;;;;;;;;;;5063696;28;20242;-52
2023/06/25 02:10:12;;;;;;;8.60;7.70;;;;;;;;;;5063334;28;20310;-53
2023/06/25 02:12:38;;;;;;;8.98;8.02;;;;;;;;;;5071540;28;20236;-51
2023/06/25 02:15:07;;;;;;;8.82;7.90;;;;;;;;;;5062137;28;20312;-53
2023/06/25 02:17:33;;;;;;;8.85;7.97;;;;;;;;;;5059873;28;20250;-52
2023/06/25 02:19:59;;;;;;;8.30;7.50;;;;;;;;;;5072088;28;20241;-52
2023/06/25 02:22:26;;;;;;;8.10;7.32;;;;;;;;;;5076715;28;20231;-52
2023/06/25 02:24:52;;;;;;;7.72;7.03;;;;;;;;;;5062158;28;20251;-51
2023/06/25 02:27:19;;;;;;;9.15;7.10;;;;;;;;;;5062760;28;20250;-51
2023/06/25 02:29:45;;;;;;;8.43;7.72;;;;;;;;;;5072555;28;20239;-54
2023/06/25 02:32:13;;;;;;;9.13;7.35;;;;;;;;;;5051635;28;20719;-52
2023/06/25 02:34:39;;;;;;;7.40;6.72;;;;;;;;;;5066570;28;20704;-52
2023/06/25 02:37:13;;;;;;;8.45;7.75;;;;;;;;;;5071672;28;20230;-52
2023/06/25 02:39:39;;;;;;;8.40;6.88;;;;;;;;;;5060091;28;20241;-52
2023/06/25 02:42:06;;;;;;;7.55;6.88;;;;;;;;;;5059409;28;20325;-52
2023/06/25 02:44:32;;;;;;;8.57;7.20;;;;;;;;;;5061683;28;20603;-52
2023/06/25 02:46:58;;;;;;;8.10;7.10;;;;;;;;;;5062082;28;20235;-53
2023/06/25 02:49:26;;;;;;;8.00;6.90;;;;;;;;;;5063161;28;20242;-52
2023/06/25 02:51:53;;;;;;;7.63;6.53;;;;;;;;;;5058341;28;20627;-51
2023/06/25 02:54:19;;;;;;;8.88;7.97;;;;;;;;;;5067434;28;20249;-54
2023/06/25 02:56:46;;;;;;;6.88;6.28;;;;;;;;;;5050672;28;20243;-54
2023/06/25 02:59:12;;;;;;;7.70;6.93;;;;;;;;;;5067997;28;20227;-52
2023/06/25 03:01:39;;;;;;;7.78;6.90;;;;;;;;;;5063628;28;20262;-52
2023/06/25 03:04:05;;;;;;;6.35;5.75;;;;;;;;;;5073288;28;20235;-53
2023/06/25 03:06:33;;;;;;;8.88;6.38;;;;;;;;;;5069092;28;20228;-52
2023/06/25 03:08:59;;;;;;;6.63;6.03;;;;;;;;;;5068152;28;20235;-53
2023/06/25 03:11:26;;;;;;;6.53;5.90;;;;;;;;;;5078282;28;20242;-52
2023/06/25 03:13:52;;;;;;;7.15;6.25;;;;;;;;;;5082552;28;20226;-53
2023/06/25 03:16:18;;;;;;;7.88;7.07;;;;;;;;;;5066862;28;20226;-53
2023/06/25 03:18:45;;;;;;;7.07;6.38;;;;;;;;;;5062987;28;20789;-58
2023/06/25 03:21:11;;;;;;;7.55;6.78;;;;;;;;;;5068316;28;20241;-53
2023/06/25 03:23:39;;;;;;;7.82;7.05;;;;;;;;;;5068574;28;20239;-52
2023/06/25 03:26:05;;;;;;;7.82;7.05;;;;;;;;;;5072066;28;20265;-52
2023/06/25 03:28:32;;;;;;;9.95;8.95;;;;;;;;;;5068005;28;20227;-51
2023/06/25 03:30:58;;;;;;;11.05;9.98;;;;;;;;;;5063985;28;20783;-52
2023/06/25 03:33:24;;;;;;;11.15;9.90;;;;;;;;;;5066005;28;20327;-52
2023/06/25 03:35:51;;;;;;;10.75;9.65;;;;;;;;;;5070311;28;20255;-53
2023/06/25 03:38:17;;;;;;;12.02;8.85;;;;;;;;;;5069029;28;20278;-52
2023/06/25 03:40:45;;;;;;;10.25;9.35;;;;;;;;;;5069296;28;20234;-51
2023/06/25 03:43:12;;;;;;;10.13;9.05;;;;;;;;;;5063570;28;20246;-52
2023/06/25 03:45:38;;;;;;;9.88;8.98;;;;;;;;;;5062867;28;20235;-52
2023/06/25 03:48:05;;;;;;;8.90;8.10;;;;;;;;;;5060518;28;20311;-52
2023/06/25 03:50:32;;;;;;;9.48;8.57;;;;;;;;;;5059074;28;20255;-53
2023/06/25 03:52:58;;;;;;;9.25;8.40;;;;;;;;;;5057461;28;20318;-52
2023/06/25 03:55:24;;;;;;;9.63;8.73;;;;;;;;;;5063675;28;20342;-52
2023/06/25 03:57:52;;;;;;;8.23;7.43;;;;;;;;;;5061818;28;20323;-52
2023/06/25 04:00:19;;;;;;;7.90;6.85;;;;;;;;;;5064586;28;20241;-52
2023/06/25 04:02:45;;;;;;;6.47;5.88;;;;;;;;;;5057446;28;20230;-54
2023/06/25 04:05:12;;;;;;;7.93;7.22;;;;;;;;;;5053378;28;20234;-51
2023/06/25 04:07:38;;;;;;;8.23;7.40;;;;;;;;;;5063951;28;20334;-52
2023/06/25 04:10:05;;;;;;;7.97;7.00;;;;;;;;;;5062909;28;20404;-53
2023/06/25 04:12:32;;;;;;;6.75;6.07;;;;;;;;;;5063607;28;20314;-52
2023/06/25 04:14:59;;;;;;;7.63;5.32;;;;;;;;;;5060518;28;20284;-52
2023/06/25 04:17:26;;;;;;;6.85;6.25;;;;;;;;;;5063886;28;20314;-52
2023/06/25 04:19:52;;;;;;;6.22;5.45;;;;;;;;;;5059833;28;20246;-52
2023/06/25 04:22:19;;;;;;;6.40;5.85;;;;;;;;;;5063987;28;20247;-51
2023/06/25 04:24:45;;;;;;;6.93;6.32;;;;;;;;;;5058851;28;20246;-54
2023/06/25 04:27:11;;;;;;;6.45;5.38;;;;;;;;;;5061052;28;20254;-53
2023/06/25 04:29:38;;;;;;;6.60;5.20;;;;;;;;;;5061785;28;20246;-52
2023/06/25 04:32:06;;;;;;;6.05;5.55;;;;;;;;;;5062974;28;20314;-56
2023/06/25 04:34:33;;;;;;;7.25;6.38;;;;;;;;;;5062385;28;21843;-52
2023/06/25 04:37:00;;;;;;;5.70;5.20;;;;;;;;;;5070345;28;20222;-52
2023/06/25 04:39:26;;;;;;;6.40;5.80;;;;;;;;;;5074167;28;20239;-52
2023/06/25 04:41:52;;;;;;;6.55;5.97;;;;;;;;;;5065855;28;20235;-56
2023/06/25 04:44:19;;;;;;;7.88;6.20;;;;;;;;;;5071203;28;20331;-53
2023/06/25 04:46:45;;;;;;;6.80;6.07;;;;;;;;;;5055066;28;21083;-53
2023/06/25 04:49:13;;;;;;;7.45;6.00;;;;;;;;;;5065980;28;20242;-51
2023/06/25 04:51:40;;;;;;;6.95;6.25;;;;;;;;;;5068077;28;20262;-52
2023/06/25 04:54:06;;;;;;;6.88;6.30;;;;;;;;;;5066784;28;20322;-52
2023/06/25 04:56:34;;;;;;;5.53;5.05;;;;;;;;;;5061724;28;20230;-53
2023/06/25 04:59:00;;;;;;;6.55;5.75;;;;;;;;;;5062730;28;20657;-53
2023/06/25 05:01:27;;;;;;;5.90;5.40;;;;;;;;;;5064707;28;20228;-54
2023/06/25 05:03:53;;;;;;;6.80;6.28;;;;;;;;;;5064098;28;20254;-53
2023/06/25 05:06:21;;;;;;;6.88;6.07;;;;;;;;;;5064762;28;20808;-52
2023/06/25 05:08:47;;;;;;;6.40;5.72;;;;;;;;;;5060151;28;20698;-53
2023/06/25 05:11:14;;;;;;;6.32;5.72;;;;;;;;;;5064659;28;20226;-53
2023/06/25 05:13:41;;;;;;;5.50;5.05;;;;;;;;;;5063243;28;20235;-53
2023/06/25 05:16:07;;;;;;;6.97;6.00;;;;;;;;;;5062048;28;20289;-53
2023/06/25 05:18:34;;;;;;;5.20;4.70;;;;;;;;;;5061673;28;20652;-52
2023/06/25 05:21:01;;;;;;;6.70;5.82;;;;;;;;;;5061685;28;20575;-53
2023/06/25 05:23:28;;;;;;;7.57;5.95;;;;;;;;;;5062667;28;20318;-52
2023/06/25 05:25:55;;;;;;;5.65;5.15;;;;;;;;;;5058886;28;20353;-53
2023/06/25 05:28:21;;;;;;;10.05;5.45;;;;;;;;;;5061558;28;20259;-53
2023/06/25 05:30:48;;;;;;;6.65;5.80;;;;;;;;;;5058948;28;20267;-54
2023/06/25 05:33:14;;;;;;;6.45;5.85;;;;;;;;;;5057932;28;20231;-54
2023/06/25 05:35:41;;;;;;;6.07;5.25;;;;;;;;;;5054420;28;20306;-53
2023/06/25 05:38:07;;;;;;;5.18;4.68;;;;;;;;;;5061712;28;20776;-53
2023/06/25 05:40:35;;;;;;;6.28;5.68;;;;;;;;;;5063992;28;20231;-53
2023/06/25 05:43:01;;;;;;;6.20;5.05;;;;;;;;;;5057569;28;20249;-53
2023/06/25 05:45:28;;;;;;;7.47;5.95;;;;;;;;;;5063025;28;20231;-54
2023/06/25 05:47:54;;;;;;;6.50;5.45;;;;;;;;;;5054906;28;20311;-53
2023/06/25 05:50:21;;;;;;;5.63;5.13;;;;;;;;;;5056964;28;20235;-53
2023/06/25 05:52:47;;;;;;;6.78;6.15;;;;;;;;;;5058796;28;20228;-52
2023/06/25 05:55:14;;;;;;;7.53;6.15;;;;;;;;;;5058480;28;20780;-52
2023/06/25 05:57:42;;;;;;;6.03;5.50;;;;;;;;;;5059461;28;20812;-53
2023/06/25 06:00:09;;;;;;;6.95;5.95;;;;;;;;;;5061764;28;20239;-52
2023/06/25 06:02:36;;;;;;;6.35;5.80;;;;;;;;;;5062827;28;20261;-53
2023/06/25 06:05:02;;;;;;;6.90;6.20;;;;;;;;;;5061715;28;20243;-53
2023/06/25 06:07:29;;;;;;;6.68;6.07;;;;;;;;;;5055413;28;20307;-52
2023/06/25 06:09:55;;;;;;;7.05;6.35;;;;;;;;;;5057141;28;20231;-52
2023/06/25 06:12:21;;;;;;;5.75;5.25;;;;;;;;;;5058989;28;20292;-53
2023/06/25 06:14:49;;;;;;;5.95;5.45;;;;;;;;;;5062530;28;20322;-53
2023/06/25 06:17:15;;;;;;;6.30;5.70;;;;;;;;;;5058998;28;20725;-59
2023/06/25 06:19:42;;;;;;;6.55;5.95;;;;;;;;;;5053700;28;20322;-52
2023/06/25 06:22:08;;;;;;;6.65;5.88;;;;;;;;;;5061525;28;20251;-52
2023/06/25 06:24:35;;;;;;;6.15;5.65;;;;;;;;;;5059298;28;20587;-52
2023/06/25 06:27:01;;;;;;;8.90;5.90;;;;;;;;;;5059708;28;20235;-57
2023/06/25 06:29:28;;;;;;;5.25;4.78;;;;;;;;;;5057461;28;20604;-53
2023/06/25 06:31:55;;;;;;;6.10;5.50;;;;;;;;;;5061602;28;20266;-52
2023/06/25 06:34:22;;;;;;;7.13;6.18;;;;;;;;;;5059503;28;20322;-53
2023/06/25 06:36:48;;;;;;;6.43;5.80;;;;;;;;;;5061317;28;20685;-54
2023/06/25 06:39:15;;;;;;;6.32;5.68;;;;;;;;;;5059710;28;20265;-53
2023/06/25 06:41:42;;;;;;;5.20;4.80;;;;;;;;;;5070922;28;20234;-52
2023/06/25 06:44:12;;;;;;;5.90;5.32;;;;;;;;;;5066237;28;20338;-54
2023/06/25 06:46:38;;;;;;;5.60;5.10;;;;;;;;;;5072432;28;20227;-53
2023/06/25 06:49:06;;;;;;;6.13;5.63;;;;;;;;;;5062970;28;20325;-53
2023/06/25 06:51:33;;;;;;;6.28;5.68;;;;;;;;;;5062183;28;20231;-53
2023/06/25 06:53:59;;;;;;;5.95;5.38;;;;;;;;;;5066049;28;21007;-53
2023/06/25 06:56:26;;;;;;;8.75;5.57;;;;;;;;;;5068834;28;20318;-53
2023/06/25 06:58:52;;;;;;;6.43;5.82;;;;;;;;;;5068541;28;20227;-53
2023/06/25 07:01:19;;;;;;;6.70;6.10;;;;;;;;;;5066838;28;20233;-54
2023/06/25 07:03:45;;;;;;;7.63;6.60;;;;;;;;;;5068043;28;20919;-52
2023/06/25 07:06:13;;;;;;;6.70;6.10;;;;;;;;;;5063444;28;20235;-53
2023/06/25 07:08:39;;;;;;;6.47;5.97;;;;;;;;;;5066979;28;20227;-54
2023/06/25 07:11:06;;;;;;;6.45;5.85;;;;;;;;;;5067218;28;20243;-53
2023/06/25 07:13:33;;;;;;;5.70;5.20;;;;;;;;;;5067144;28;20227;-54
2023/06/25 07:15:59;;;;;;;6.40;5.90;;;;;;;;;;5066560;28;20748;-53
2023/06/25 07:18:26;;;;;;;5.70;5.13;;;;;;;;;;5068185;28;20233;-53
2023/06/25 07:20:52;;;;;;;5.80;5.30;;;;;;;;;;5056619;28;20783;-54
2023/06/25 07:23:20;;;;;;;6.35;5.85;;;;;;;;;;5067691;28;20239;-54
2023/06/25 07:25:46;;;;;;;7.30;6.32;;;;;;;;;;5058132;28;20228;-54
2023/06/25 07:28:13;;;;;;;6.05;5.55;;;;;;;;;;5060545;28;20235;-52
2023/06/25 07:30:39;;;;;;;6.40;5.80;;;;;;;;;;5057234;28;20260;-53
2023/06/25 07:33:06;;;;;;;6.18;5.68;;;;;;;;;;5052462;28;20330;-52
2023/06/25 07:35:32;;;;;;;6.45;5.85;;;;;;;;;;5050604;28;20782;-53
2023/06/25 07:37:58;;;;;;;8.88;5.45;;;;;;;;;;5059173;28;20231;-53
2023/06/25 07:40:26;;;;;;;6.63;5.97;;;;;;;;;;5059872;28;20319;-53
2023/06/25 07:42:53;;;;;;;7.38;6.75;;;;;;;;;;5058086;28;20243;-53
2023/06/25 07:45:19;;;;;;;6.40;5.85;;;;;;;;;;5062610;28;20238;-53
2023/06/25 07:47:45;;;;;;;6.63;6.07;;;;;;;;;;5061746;28;20238;-52
2023/06/25 07:50:12;;;;;;;7.05;6.15;;;;;;;;;;5053923;28;20290;-53
2023/06/25 07:52:38;;;;;;;7.40;6.78;;;;;;;;;;5063803;28;20893;-52
2023/06/25 07:55:05;;;;;;;6.40;5.80;;;;;;;;;;5062292;28;20235;-52
2023/06/25 07:57:33;;;;;;;5.78;5.28;;;;;;;;;;5061898;28;20322;-53
2023/06/25 07:59:59;;;;;;;7.30;6.55;;;;;;;;;;5065427;28;20235;-53
2023/06/25 08:02:26;;;;;;;6.43;5.88;;;;;;;;;;5054550;28;20238;-51
2023/06/25 08:04:52;;;;;;;6.80;6.10;;;;;;;;;;5067823;28;20843;-53
2023/06/25 08:07:18;;;;;;;7.28;5.82;;;;;;;;;;5055641;28;20324;-52
2023/06/25 08:09:46;;;;;;;7.45;6.85;;;;;;;;;;5058117;28;20661;-52
2023/06/25 08:12:14;;;;;;;7.45;6.75;;;;;;;;;;5054872;28;20250;-53
2023/06/25 08:14:42;;;;;;;7.15;6.55;;;;;;;;;;5065908;28;20228;-52
2023/06/25 08:17:08;;;;;;;6.25;5.65;;;;;;;;;;5057938;28;20319;-52
2023/06/25 08:19:35;;;;;;;6.30;5.80;;;;;;;;;;5058435;28;20242;-53
2023/06/25 08:22:01;;;;;;;6.25;5.75;;;;;;;;;;5057130;28;20231;-53
2023/06/25 08:24:27;;;;;;;7.72;7.03;;;;;;;;;;5053627;28;20231;-53
2023/06/25 08:26:54;;;;;;;7.20;6.50;;;;;;;;;;5065364;28;20231;-53
2023/06/25 08:29:21;;;;;;;6.63;6.03;;;;;;;;;;5066556;28;20289;-53
2023/06/25 08:31:48;;;;;;;5.93;5.45;;;;;;;;;;5066089;28;20231;-55
2023/06/25 08:34:15;;;;;;;5.57;5.03;;;;;;;;;;5062334;28;20688;-53
2023/06/25 08:36:41;;;;;;;6.55;5.85;;;;;;;;;;5061163;28;20247;-53
2023/06/25 08:39:08;;;;;;;6.20;5.70;;;;;;;;;;5065371;28;21821;-53
2023/06/25 08:41:34;;;;;;;7.72;6.90;;;;;;;;;;5067848;28;20251;-54
2023/06/25 08:44:01;;;;;;;7.47;6.88;;;;;;;;;;5045073;28;20224;-53
2023/06/25 08:46:28;;;;;;;6.82;6.22;;;;;;;;;;5045921;28;20713;-53
2023/06/25 08:48:58;;;;;;;6.75;6.15;;;;;;;;;;5052486;28;20235;-53
2023/06/25 08:51:25;;;;;;;6.47;5.97;;;;;;;;;;5060686;28;20320;-52
2023/06/25 08:53:52;;;;;;;6.40;5.80;;;;;;;;;;5052252;27;20239;-53
2023/06/25 08:56:19;;;;;;;6.50;5.90;;;;;;;;;;5059254;28;20259;-53
2023/06/25 08:58:45;;;;;;;7.35;6.22;;;;;;;;;;5056452;28;20231;-53
2023/06/25 09:01:12;;;;;;;6.75;5.97;;;;;;;;;;5055215;28;20377;-53
2023/06/25 09:03:39;;;;;;;6.43;5.82;;;;;;;;;;5055398;28;20288;-53
2023/06/25 09:06:12;;;;;;;6.38;5.78;;;;;;;;;;5061021;28;20655;-53
2023/06/25 09:08:40;;;;;;;6.47;5.85;;;;;;;;;;5052809;27;20847;-53
2023/06/25 09:11:06;;;;;;;6.35;5.75;;;;;;;;;;5054326;28;20227;-53
2023/06/25 09:13:33;;;;;;;6.82;6.00;;;;;;;;;;5058911;28;20732;-52
2023/06/25 09:16:01;;;;;;;6.40;5.80;;;;;;;;;;5057955;28;20230;-53
2023/06/25 09:18:29;;;;;;;6.93;6.43;;;;;;;;;;5049826;28;20314;-53
2023/06/25 09:20:57;;;;;;;6.18;5.57;;;;;;;;;;5055910;28;20242;-53
2023/06/25 09:23:25;;;;;;;7.97;5.68;;;;;;;;;;5061316;28;20723;-53
2023/06/25 09:25:52;;;;;;;6.70;6.00;;;;;;;;;;5057990;28;20245;-53
2023/06/25 09:28:18;;;;;;;6.68;6.07;;;;;;;;;;5062207;28;20309;-54
2023/06/25 09:30:45;;;;;;;6.05;5.45;;;;;;;;;;5062544;28;20768;-53
2023/06/25 09:33:12;;;;;;;6.32;5.72;;;;;;;;;;5063209;28;20239;-53
2023/06/25 09:35:39;;;;;;;7.40;5.38;;;;;;;;;;5054915;28;20351;-52
2023/06/25 09:38:05;;;;;;;6.45;5.75;;;;;;;;;;5060284;28;20229;-53
2023/06/25 09:40:33;;;;;;;6.50;5.97;;;;;;;;;;5054648;28;20741;-52
2023/06/25 09:43:05;;;;;;;6.25;5.68;;;;;;;;;;5058384;28;20239;-53
2023/06/25 09:45:31;;;;;;;6.25;5.65;;;;;;;;;;5058635;28;20239;-53
2023/06/25 09:47:58;;;;;;;6.72;5.53;;;;;;;;;;5064753;28;20251;-52
2023/06/25 09:50:26;;;;;;;6.07;5.57;;;;;;;;;;5067446;28;20258;-53
2023/06/25 09:52:54;;;;;;;5.57;5.13;;;;;;;;;;5065935;28;20238;-53
2023/06/25 09:55:21;;;;;;;6.40;5.88;;;;;;;;;;5065672;28;20223;-53
2023/06/25 09:57:50;;;;;;;6.28;5.68;;;;;;;;;;5069720;28;20230;-54
2023/06/25 10:00:16;;;;;;;6.65;5.95;;;;;;;;;;5071314;28;20293;-54
2023/06/25 10:02:44;;;;;;;7.82;6.88;;;;;;;;;;5058252;28;20235;-52
2023/06/25 10:05:11;;;;;;;6.90;5.97;;;;;;;;;;5063801;28;20758;-52
2023/06/25 10:07:37;;;;;;;5.55;5.07;;;;;;;;;;5066025;28;20378;-52
2023/06/25 10:10:04;;;;;;;4.88;4.50;;;;;;;;;;5064662;28;20772;-52
2023/06/25 10:12:32;;;;;;;5.20;4.80;;;;;;;;;;5065527;28;20251;-51
2023/06/25 10:15:02;;;;;;;5.55;5.03;;;;;;;;;;5061982;28;20313;-53
2023/06/25 10:17:28;;;;;;;4.97;4.57;;;;;;;;;;5060407;28;20234;-52
2023/06/25 10:19:56;;;;;;;5.57;4.90;;;;;;;;;;5060801;28;20779;-52
2023/06/25 10:22:23;;;;;;;4.60;4.30;;;;;;;;;;5063351;28;20243;-53
2023/06/25 10:24:50;;;;;;;4.78;4.38;;;;;;;;;;5064739;28;20239;-53
2023/06/25 10:27:21;;;;;;;4.88;4.50;;;;;;;;;;5063500;28;20318;-52
2023/06/25 10:29:48;;;;;;;5.75;5.15;;;;;;;;;;5061140;28;20312;-53
2023/06/25 10:32:18;;;;;;;6.10;4.95;;;;;;;;;;5059806;28;20318;-53
2023/06/25 10:34:44;;;;;;;5.18;4.68;;;;;;;;;;5065671;28;20298;-54
2023/06/25 10:37:13;;;;;;;5.15;4.63;;;;;;;;;;5061614;28;20936;-53
2023/06/25 10:39:40;;;;;;;5.43;4.93;;;;;;;;;;5064257;28;20313;-55
2023/06/25 10:42:07;;;;;;;4.85;4.45;;;;;;;;;;5064541;28;20238;-52
2023/06/25 10:44:33;;;;;;;6.80;4.93;;;;;;;;;;5061473;28;20321;-53
2023/06/25 10:47:03;;;;;;;4.57;4.18;;;;;;;;;;5059996;28;20228;-52
2023/06/25 10:49:32;;;;;;;4.93;4.47;;;;;;;;;;5059112;28;20223;-52
2023/06/25 10:51:58;;;;;;;5.15;4.15;;;;;;;;;;5065164;28;20234;-52
2023/06/25 10:54:25;;;;;;;5.07;4.63;;;;;;;;;;5062461;28;20318;-52
2023/06/25 10:56:54;;;;;;;4.75;4.35;;;;;;;;;;5062902;28;20231;-52
2023/06/25 10:59:22;;;;;;;5.43;5.03;;;;;;;;;;5061755;28;20315;-52
2023/06/25 11:01:48;;;;;;;5.05;4.43;;;;;;;;;;5062949;28;20662;-52
2023/06/25 11:04:15;;;;;;;5.97;5.47;;;;;;;;;;5062172;28;20314;-52
2023/06/25 11:06:43;;;;;;;8.55;6.07;;;;;;;;;;5063944;28;20234;-52
2023/06/25 11:09:09;;;;;;;5.45;5.03;;;;;;;;;;5062945;28;20236;-53
2023/06/25 11:11:37;;;;;;;5.38;4.97;;;;;;;;;;5064083;28;20724;-51
2023/06/25 11:14:04;;;;;;;5.28;4.88;;;;;;;;;;5064398;28;20628;-52
2023/06/25 11:16:30;;;;;;;5.68;5.18;;;;;;;;;;5057312;28;20223;-53
2023/06/25 11:18:57;;;;;;;5.47;4.97;;;;;;;;;;5062238;28;20259;-52
2023/06/25 11:21:23;;;;;;;5.15;4.75;;;;;;;;;;5055806;28;20235;-54
2023/06/25 11:23:51;;;;;;;5.30;4.85;;;;;;;;;;5056593;28;20692;-52
2023/06/25 11:26:17;;;;;;;5.15;4.75;;;;;;;;;;5058448;28;20228;-53
2023/06/25 11:28:45;;;;;;;4.28;3.97;;;;;;;;;;5064737;28;20254;-53
2023/06/25 11:31:12;;;;;;;5.18;4.78;;;;;;;;;;5066236;28;20238;-52
2023/06/25 11:33:38;;;;;;;4.57;4.18;;;;;;;;;;5060358;28;20243;-53
2023/06/25 11:36:09;;;;;;;4.68;4.28;;;;;;;;;;5067755;28;20244;-53
2023/06/25 11:38:35;;;;;;;4.72;4.32;;;;;;;;;;5062546;28;20222;-53
2023/06/25 11:41:05;;;;;;;4.45;4.15;;;;;;;;;;5065648;28;20270;-52
2023/06/25 11:43:32;;;;;;;5.15;4.55;;;;;;;;;;5063779;28;20238;-54
2023/06/25 11:46:00;;;;;;;4.70;4.30;;;;;;;;;;5067043;28;20781;-52
2023/06/25 11:48:26;;;;;;;4.88;4.15;;;;;;;;;;5056200;28;20273;-52
2023/06/25 11:50:53;;;;;;;4.75;4.43;;;;;;;;;;5067678;27;20258;-51
2023/06/25 11:53:19;;;;;;;4.25;3.88;;;;;;;;;;5062469;28;20227;-52
2023/06/25 11:55:46;;;;;;;6.10;4.68;;;;;;;;;;5064350;28;20284;-52
2023/06/25 11:58:14;;;;;;;4.00;3.60;;;;;;;;;;5063473;28;20318;-52
2023/06/25 12:00:40;;;;;;;4.70;4.30;;;;;;;;;;5067950;28;20254;-53
2023/06/25 12:03:07;;;;;;;4.78;4.38;;;;;;;;;;5075734;28;20257;-52
2023/06/25 12:05:33;;;;;;;4.38;3.45;;;;;;;;;;5059941;28;20322;-52
2023/06/25 12:08:00;;;;;;;3.90;3.60;;;;;;;;;;5064848;28;20634;-52
2023/06/25 12:10:26;;;;;;;4.65;3.97;;;;;;;;;;5059827;28;20702;-52
2023/06/25 12:12:54;;;;;;;5.57;5.05;;;;;;;;;;5058454;28;20235;-54
2023/06/25 12:15:22;;;;;;;5.47;4.53;;;;;;;;;;5061174;28;20233;-53
2023/06/25 12:17:49;;;;;;;4.53;4.20;;;;;;;;;;5061468;28;20315;-53
2023/06/25 12:20:15;;;;;;;4.55;4.15;;;;;;;;;;5061521;28;20281;-53
2023/06/25 12:22:42;;;;;;;5.43;4.80;;;;;;;;;;5057959;28;20278;-52
2023/06/25 12:25:08;;;;;;;4.72;4.28;;;;;;;;;;5060676;28;20243;-53
2023/06/25 12:27:36;;;;;;;7.35;5.93;;;;;;;;;;5061737;28;20235;-53
2023/06/25 12:30:02;;;;;;;5.85;5.35;;;;;;;;;;5060381;28;20281;-53
2023/06/25 12:32:30;;;;;;;6.03;5.40;;;;;;;;;;5063431;28;20261;-52
2023/06/25 12:34:57;;;;;;;5.43;4.90;;;;;;;;;;5064446;28;20236;-52
2023/06/25 12:37:23;;;;;;;6.38;5.70;;;;;;;;;;5069961;28;20231;-52
2023/06/25 12:39:49;;;;;;;6.50;5.90;;;;;;;;;;5062573;28;20304;-52
2023/06/25 12:42:17;;;;;;;6.15;5.28;;;;;;;;;;5066720;28;20674;-53
2023/06/25 12:44:43;;;;;;;7.18;6.47;;;;;;;;;;5060840;28;20229;-53
2023/06/25 12:47:10;;;;;;;7.13;6.25;;;;;;;;;;5064843;28;20292;-52
2023/06/25 12:49:37;;;;;;;6.60;5.53;;;;;;;;;;5060800;28;20281;-52
2023/06/25 12:52:04;;;;;;;5.13;4.63;;;;;;;;;;5062083;28;20254;-52
2023/06/25 12:54:31;;;;;;;6.65;5.28;;;;;;;;;;5062060;28;20241;-52
2023/06/25 12:56:57;;;;;;;5.45;4.50;;;;;;;;;;5059317;28;20262;-52
2023/06/25 12:59:23;;;;;;;6.10;5.45;;;;;;;;;;5060051;28;20237;-52
2023/06/25 13:01:55;;;;;;;4.70;4.30;;;;;;;;;;5062522;28;20235;-52
2023/06/25 13:04:22;;;;;;;5.72;4.72;;;;;;;;;;5056969;28;20247;-52
2023/06/25 13:06:49;;;;;;;5.75;4.70;;;;;;;;;;5066287;28;20249;-55
2023/06/25 13:09:16;;;;;;;7.90;4.50;;;;;;;;;;5062680;28;20334;-52
2023/06/25 13:11:42;;;;;;;5.28;4.50;;;;;;;;;;5060573;28;20242;-52
2023/06/25 13:14:09;;;;;;;4.80;4.40;;;;;;;;;;5058834;28;20664;-53
2023/06/25 13:16:35;;;;;;;6.63;5.93;;;;;;;;;;5061467;28;20720;-52
2023/06/25 13:19:02;;;;;;;6.85;6.25;;;;;;;;;;5061524;28;20223;-52
2023/06/25 13:21:28;;;;;;;5.97;5.38;;;;;;;;;;5057551;28;20251;-52
2023/06/25 13:23:56;;;;;;;6.25;5.68;;;;;;;;;;5063024;28;20267;-53
2023/06/25 13:26:23;;;;;;;5.80;5.20;;;;;;;;;;5062887;28;20235;-53
2023/06/25 13:28:50;;;;;;;5.55;5.05;;;;;;;;;;5065215;28;20397;-52
2023/06/25 13:31:17;;;;;;;7.15;5.55;;;;;;;;;;5065101;28;20842;-53
2023/06/25 13:33:43;;;;;;;6.05;5.55;;;;;;;;;;5062916;28;20300;-52
2023/06/25 13:36:10;;;;;;;6.38;5.45;;;;;;;;;;5062159;28;20727;-54
2023/06/25 13:38:36;;;;;;;6.60;6.00;;;;;;;;;;5061213;28;20762;-52
2023/06/25 13:41:04;;;;;;;7.78;6.15;;;;;;;;;;5058429;28;20227;-53
2023/06/25 13:43:34;;;;;;;6.82;6.30;;;;;;;;;;5059815;28;20742;-54
2023/06/25 13:46:01;;;;;;;6.15;5.55;;;;;;;;;;5062457;28;20304;-52
2023/06/25 13:48:28;;;;;;;6.40;5.80;;;;;;;;;;5059036;28;20755;-53
2023/06/25 13:50:55;;;;;;;6.13;5.45;;;;;;;;;;5057451;28;20595;-53
2023/06/25 13:53:21;;;;;;;5.15;4.65;;;;;;;;;;5063354;28;20231;-52
2023/06/25 13:55:51;;;;;;;6.25;5.63;;;;;;;;;;5065055;28;20234;-52
2023/06/25 13:58:19;;;;;;;7.60;6.90;;;;;;;;;;5060671;28;20249;-52
2023/06/25 14:00:46;;;;;;;7.40;5.85;;;;;;;;;;5061848;28;20340;-51
2023/06/25 14:03:12;;;;;;;6.22;5.28;;;;;;;;;;5059771;28;20223;-52
2023/06/25 14:05:39;;;;;;;5.35;4.82;;;;;;;;;;5061910;28;20331;-52
2023/06/25 14:08:05;;;;;;;6.47;5.85;;;;;;;;;;5060062;28;20261;-53
2023/06/25 14:10:32;;;;;;;5.32;4.93;;;;;;;;;;5062690;28;20242;-53
2023/06/25 14:13:01;;;;;;;5.25;4.85;;;;;;;;;;5057921;28;20235;-53
2023/06/25 14:15:29;;;;;;;10.30;5.13;;;;;;;;;;5063423;28;20641;-54
2023/06/25 14:17:55;;;;;;;5.75;5.30;;;;;;;;;;5060618;28;20492;-52
2023/06/25 14:20:21;;;;;;;16.50;14.15;;;;;;;;;;5053189;28;20587;-52
2023/06/25 14:22:48;;;;;;;7.57;6.88;;;;;;;;;;5057542;28;20717;-54
2023/06/25 14:25:14;;;;;;;7.03;6.40;;;;;;;;;;5061425;28;20237;-52
2023/06/25 14:27:41;;;;;;;6.88;6.18;;;;;;;;;;5060139;28;20322;-52
2023/06/25 14:30:08;;;;;;;6.53;5.93;;;;;;;;;;5060981;28;20238;-52
2023/06/25 14:32:35;;;;;;;6.53;5.93;;;;;;;;;;5059081;28;20239;-52
2023/06/25 14:35:02;;;;;;;7.18;6.47;;;;;;;;;;5061003;28;20233;-52